Time,TemperatureF,DewpointF,PressureIn,WindDirection,WindDirectionDegrees,WindSpeedMPH,WindSpeedGustMPH,Humidity,HourlyPrecipIn,Conditions,Clouds,dailyrainin,SoftwareType,DateUTC
2013-06-07 00:01:00,50.7,49.3,30.04,North,0,0.0,0.0,95,0.12,,-RA,0.00,VWS V14.01,2013-06-07 04:01:00,
2013-06-07 00:02:00,50.7,49.3,30.04,North,0,0.0,0.0,95,0.12,,-RA,0.00,VWS V14.01,2013-06-07 04:02:00,
2013-06-07 00:07:00,50.7,49.3,30.04,North,0,0.0,0.0,95,0.12,,-RA,0.00,VWS V14.01,2013-06-07 04:07:00,
2013-06-07 00:12:00,50.7,49.3,30.04,NW,324,0.0,0.0,95,0.12,,-RA,0.00,VWS V14.01,2013-06-07 04:12:00,
2013-06-07 00:17:00,50.7,49.3,30.04,NNW,336,0.0,0.0,95,0.16,,-RA,0.04,VWS V14.01,2013-06-07 04:17:00,
2013-06-07 00:22:00,50.9,49.8,30.04,NNW,336,0.0,0.0,96,0.12,,-RA,0.04,VWS V14.01,2013-06-07 04:22:00,
2013-06-07 00:27:00,50.9,49.8,30.04,NNE,16,0.0,0.0,96,0.12,,-RA,0.04,VWS V14.01,2013-06-07 04:27:00,
2013-06-07 00:32:00,50.9,49.8,30.04,NNE,16,0.0,0.0,96,0.12,,-RA,0.04,VWS V14.01,2013-06-07 04:32:00,
2013-06-07 00:37:00,50.9,49.8,30.04,NNW,345,0.0,0.0,96,0.16,,-RA,0.08,VWS V14.01,2013-06-07 04:37:00,
2013-06-07 00:42:00,50.9,49.8,30.04,NNW,345,0.0,0.0,96,0.12,,-RA,0.08,VWS V14.01,2013-06-07 04:42:00,
2013-06-07 00:47:00,50.9,49.8,30.04,NNW,345,0.0,0.0,96,0.12,,-RA,0.08,VWS V14.01,2013-06-07 04:47:00,
2013-06-07 00:52:00,50.9,49.8,30.04,NNW,336,0.0,0.0,96,0.12,,-RA,0.08,VWS V14.01,2013-06-07 04:52:00,
2013-06-07 00:57:00,50.7,49.6,30.04,North,353,0.0,0.0,96,0.16,,-RA,0.12,VWS V14.01,2013-06-07 04:57:00,
2013-06-07 01:02:00,50.7,49.6,30.01,NE,40,2.7,2.7,96,0.12,,-RA,0.12,VWS V14.01,2013-06-07 05:02:00,
2013-06-07 01:07:00,50.7,49.6,30.01,NNE,18,0.0,2.7,96,0.12,,-RA,0.12,VWS V14.01,2013-06-07 05:07:00,
2013-06-07 01:12:00,50.7,49.6,30.01,North,357,5.4,5.4,96,0.12,,-RA,0.12,VWS V14.01,2013-06-07 05:12:00,
2013-06-07 01:17:00,50.7,49.6,30.01,NNW,341,2.7,5.4,96,0.16,,-RA,0.16,VWS V14.01,2013-06-07 05:17:00,
2013-06-07 01:22:00,50.7,49.6,30.01,NNE,23,0.0,0.0,96,0.12,,-RA,0.16,VWS V14.01,2013-06-07 05:22:00,
2013-06-07 01:27:00,50.7,49.6,30.01,North,357,2.2,4.9,96,0.16,,-RA,0.20,VWS V14.01,2013-06-07 05:27:00,
2013-06-07 01:32:00,50.7,49.6,30.01,North,4,0.0,0.0,96,0.16,,-RA,0.20,VWS V14.01,2013-06-07 05:32:00,
2013-06-07 01:37:00,50.7,49.9,30.01,NNW,348,3.1,3.1,97,0.16,,-RA,0.20,VWS V14.01,2013-06-07 05:37:00,
2013-06-07 01:42:00,50.7,49.9,30.01,NE,50,0.0,0.0,97,0.16,,RA,0.24,VWS V14.01,2013-06-07 05:42:00,
2013-06-07 01:47:00,50.7,49.9,30.01,NNW,348,3.1,3.1,97,0.16,,RA,0.24,VWS V14.01,2013-06-07 05:47:00,
2013-06-07 01:52:00,50.9,50.1,30.01,NNW,341,0.0,0.0,97,0.16,,RA,0.24,VWS V14.01,2013-06-07 05:52:00,
2013-06-07 01:57:00,50.9,50.1,30.01,NW,321,3.1,3.1,97,0.16,,RA,0.24,VWS V14.01,2013-06-07 05:57:00,
2013-06-07 02:02:00,50.9,50.1,30.01,North,5,0.0,0.0,97,0.16,,RA,0.28,VWS V14.01,2013-06-07 06:02:00,
2013-06-07 02:07:00,50.9,50.1,30.01,North,11,0.0,0.0,97,0.16,,RA,0.28,VWS V14.01,2013-06-07 06:07:00,
2013-06-07 02:12:00,51.1,50.3,30.01,North,4,0.0,0.0,97,0.16,,RA,0.28,VWS V14.01,2013-06-07 06:12:00,
2013-06-07 02:17:00,51.1,50.3,30.01,North,350,0.0,0.0,97,0.16,,RA,0.28,VWS V14.01,2013-06-07 06:17:00,
2013-06-07 02:22:00,51.1,50.3,30.01,North,3,0.0,0.0,97,0.12,,RA,0.28,VWS V14.01,2013-06-07 06:22:00,
2013-06-07 02:27:00,51.1,50.3,30.01,South,184,0.0,3.6,97,0.12,,RA,0.28,VWS V14.01,2013-06-07 06:27:00,
2013-06-07 02:32:00,51.3,50.4,30.01,NNW,337,2.7,2.7,97,0.08,,RA,0.28,VWS V14.01,2013-06-07 06:32:00,
2013-06-07 02:37:00,51.3,50.4,30.01,NNE,13,4.0,4.0,97,0.12,,RA,0.31,VWS V14.01,2013-06-07 06:37:00,
2013-06-07 02:42:00,51.4,50.6,30.01,NNW,337,2.7,2.7,97,0.08,,RA,0.31,VWS V14.01,2013-06-07 06:42:00,
2013-06-07 02:47:00,51.4,50.6,30.01,NNW,343,0.0,3.1,97,0.08,,RA,0.31,VWS V14.01,2013-06-07 06:47:00,
2013-06-07 02:52:00,51.4,50.6,30.01,NNW,346,0.0,0.0,97,0.08,,RA,0.31,VWS V14.01,2013-06-07 06:52:00,
2013-06-07 02:57:00,51.4,50.6,29.98,NNW,341,0.0,0.0,97,0.16,,RA,0.39,VWS V14.01,2013-06-07 06:57:00,
2013-06-07 03:02:00,51.6,50.8,29.98,North,357,0.0,4.0,97,0.16,,RA,0.39,VWS V14.01,2013-06-07 07:02:00,
2013-06-07 03:07:00,51.6,50.8,29.98,North,357,0.0,4.0,97,0.16,,RA,0.39,VWS V14.01,2013-06-07 07:07:00,
2013-06-07 03:12:00,51.6,50.8,29.98,NNW,345,2.7,2.7,97,0.12,,RA,0.39,VWS V14.01,2013-06-07 07:12:00,
2013-06-07 03:17:00,51.8,51.0,29.98,NNW,345,2.7,2.7,97,0.12,,RA,0.39,VWS V14.01,2013-06-07 07:17:00,
2013-06-07 03:22:00,52.0,51.2,29.98,North,1,4.0,4.0,97,0.12,,RA,0.39,VWS V14.01,2013-06-07 07:22:00,
2013-06-07 03:27:00,52.0,51.2,29.98,NNW,332,6.3,6.3,97,0.12,,RA,0.39,VWS V14.01,2013-06-07 07:27:00,
2013-06-07 03:32:00,52.0,51.2,29.98,NW,318,2.2,2.2,97,0.12,,RA,0.39,VWS V14.01,2013-06-07 07:32:00,
2013-06-07 03:38:00,52.0,51.2,29.98,ENE,61,8.1,8.1,97,0.12,,RA,0.39,VWS V14.01,2013-06-07 07:38:00,
2013-06-07 03:43:00,52.2,51.3,29.98,NNW,341,3.6,3.6,97,0.08,,RA,0.39,VWS V14.01,2013-06-07 07:43:00,
2013-06-07 03:48:00,52.2,51.3,29.98,NNW,327,2.7,4.0,97,0.08,,RA,0.39,VWS V14.01,2013-06-07 07:48:00,
2013-06-07 03:53:00,52.2,51.3,29.98,NNW,327,2.7,2.7,97,0.08,,RA,0.39,VWS V14.01,2013-06-07 07:53:00,
2013-06-07 03:58:00,52.0,51.2,29.98,NNW,345,0.0,2.7,97,0.08,,RA,0.39,VWS V14.01,2013-06-07 07:58:00,
2013-06-07 04:03:00,52.0,51.2,29.98,North,357,6.3,6.3,97,0.00,,RA,0.39,VWS V14.01,2013-06-07 08:03:00,
2013-06-07 04:08:00,52.0,51.2,29.98,North,4,0.0,6.3,97,0.00,,RA,0.39,VWS V14.01,2013-06-07 08:08:00,
2013-06-07 04:13:00,51.8,51.0,29.98,NW,315,0.0,0.0,97,0.00,,RA,0.39,VWS V14.01,2013-06-07 08:13:00,
2013-06-07 04:18:00,51.8,51.0,29.98,NNE,31,0.0,0.0,97,0.00,,RA,0.39,VWS V14.01,2013-06-07 08:18:00,
2013-06-07 04:23:00,51.8,51.0,29.98,North,1,3.1,3.1,97,0.00,,RA,0.39,VWS V14.01,2013-06-07 08:23:00,
2013-06-07 04:28:00,51.8,51.0,29.98,NNE,21,0.0,4.0,97,0.00,,RA,0.39,VWS V14.01,2013-06-07 08:28:00,
2013-06-07 04:33:00,51.8,51.0,29.98,NW,316,0.0,5.4,97,0.00,,RA,0.39,VWS V14.01,2013-06-07 08:33:00,
2013-06-07 04:38:00,51.8,51.0,29.98,East,99,3.6,5.4,97,0.04,,RA,0.43,VWS V14.01,2013-06-07 08:38:00,
2013-06-07 04:43:00,52.0,51.2,29.98,North,11,4.9,4.9,97,0.04,,RA,0.43,VWS V14.01,2013-06-07 08:43:00,
2013-06-07 04:48:00,52.2,51.3,29.98,NW,318,3.6,4.9,97,0.04,,RA,0.43,VWS V14.01,2013-06-07 08:48:00,
2013-06-07 04:53:00,52.2,51.3,29.98,NW,324,0.0,0.0,97,0.04,,RA,0.43,VWS V14.01,2013-06-07 08:53:00,
2013-06-07 04:58:00,52.0,51.2,29.98,NE,47,5.4,5.4,97,0.04,,RA,0.43,VWS V14.01,2013-06-07 08:58:00,
2013-06-07 05:03:00,52.0,51.2,29.98,North,357,3.6,3.6,97,0.04,,RA,0.43,VWS V14.01,2013-06-07 09:03:00,
2013-06-07 05:08:00,52.0,51.2,29.98,NNE,16,5.4,5.4,97,0.04,,RA,0.43,VWS V14.01,2013-06-07 09:08:00,
2013-06-07 05:13:00,52.2,51.3,29.98,North,1,0.0,5.8,97,0.04,,RA,0.00,VWS V14.01,2013-06-07 09:13:00,
2013-06-07 05:18:00,52.2,51.3,29.98,NNW,336,0.0,5.8,97,0.04,,RA,0.43,VWS V14.01,2013-06-07 09:18:00,
2013-06-07 05:23:00,52.3,51.5,29.98,NNE,19,0.0,4.0,97,0.04,,RA,0.43,VWS V14.01,2013-06-07 09:23:00,
2013-06-07 05:28:00,52.3,51.5,29.98,NW,316,4.0,4.0,97,0.04,,RA,0.43,VWS V14.01,2013-06-07 09:28:00,
2013-06-07 05:33:00,52.3,51.5,29.98,NNW,335,0.0,3.6,97,0.04,,RA,0.43,VWS V14.01,2013-06-07 09:33:00,
2013-06-07 05:38:00,52.3,51.5,29.98,NNW,328,6.3,6.3,97,0.04,,RA,0.43,VWS V14.01,2013-06-07 09:38:00,
2013-06-07 05:43:00,52.3,51.2,29.98,NNW,333,0.0,0.0,96,0.00,,RA,0.43,VWS V14.01,2013-06-07 09:43:00,
2013-06-07 05:48:00,52.3,51.2,29.98,North,5,5.4,5.4,96,0.00,,RA,0.43,VWS V14.01,2013-06-07 09:48:00,
2013-06-07 05:53:00,52.3,51.2,29.98,NW,313,0.0,5.4,96,0.00,,RA,0.43,VWS V14.01,2013-06-07 09:53:00,
2013-06-07 05:58:00,52.2,51.1,29.98,SW,235,3.1,5.4,96,0.00,,RA,0.43,VWS V14.01,2013-06-07 09:58:00,
2013-06-07 06:03:00,52.2,51.1,29.98,NNW,329,0.0,0.0,96,0.00,,-RA,0.43,VWS V14.01,2013-06-07 10:03:00,
2013-06-07 06:08:00,52.0,50.9,29.98,NW,310,3.6,3.6,96,0.00,,-RA,0.43,VWS V14.01,2013-06-07 10:08:00,
2013-06-07 06:13:00,52.0,50.9,29.98,North,357,3.1,3.6,96,0.00,,-RA,0.43,VWS V14.01,2013-06-07 10:13:00,
2013-06-07 06:18:00,52.0,50.9,29.98,NW,325,2.7,5.8,96,0.00,,-RA,0.43,VWS V14.01,2013-06-07 10:18:00,
2013-06-07 06:23:00,52.0,50.9,29.98,NW,318,2.2,2.7,96,0.00,,-RA,0.43,VWS V14.01,2013-06-07 10:23:00,
2013-06-07 06:28:00,52.0,50.9,29.98,NNE,24,3.1,5.4,96,0.00,,-RA,0.43,VWS V14.01,2013-06-07 10:28:00,
2013-06-07 06:33:00,52.2,51.1,29.98,North,353,8.3,8.3,96,0.00,,-RA,0.43,VWS V14.01,2013-06-07 10:33:00,
2013-06-07 06:38:00,52.2,51.1,29.98,NNW,340,0.0,8.3,96,0.00,,-RA,0.43,VWS V14.01,2013-06-07 10:38:00,
2013-06-07 06:43:00,52.2,51.1,29.98,NNW,327,3.1,3.1,96,0.00,,-RA,0.43,VWS V14.01,2013-06-07 10:43:00,
2013-06-07 06:48:00,52.2,51.1,29.98,North,6,0.0,3.1,96,0.00,,-RA,0.43,VWS V14.01,2013-06-07 10:48:00,
2013-06-07 06:53:00,52.2,51.1,29.98,NNW,340,3.6,3.6,96,0.00,,-RA,0.43,VWS V14.01,2013-06-07 10:53:00,
2013-06-07 06:58:00,52.3,51.5,29.98,North,8,0.0,3.6,97,0.00,,-RA,0.43,VWS V14.01,2013-06-07 10:58:00,
2013-06-07 07:03:00,52.3,51.5,29.98,NNW,341,4.9,4.9,97,0.00,,-RA,0.43,VWS V14.01,2013-06-07 11:03:00,
2013-06-07 07:08:00,52.3,51.5,29.98,SW,229,0.0,4.9,97,0.00,,-RA,0.43,VWS V14.01,2013-06-07 11:08:00,
2013-06-07 07:13:00,52.5,51.7,29.98,North,353,0.0,4.0,97,0.00,,-RA,0.43,VWS V14.01,2013-06-07 11:13:00,
2013-06-07 07:18:00,52.5,51.7,29.98,North,357,0.0,4.0,97,0.00,,-RA,0.43,VWS V14.01,2013-06-07 11:18:00,
2013-06-07 07:23:00,52.7,51.9,29.98,NNW,340,2.7,2.7,97,0.00,,-RA,0.43,VWS V14.01,2013-06-07 11:23:00,
2013-06-07 07:28:00,52.7,51.9,29.98,North,7,0.0,2.7,97,0.00,,-RA,0.43,VWS V14.01,2013-06-07 11:28:00,
2013-06-07 07:33:00,52.5,51.4,29.98,WNW,303,0.0,0.0,96,0.00,,-RA,0.43,VWS V14.01,2013-06-07 11:33:00,
2013-06-07 07:38:00,52.5,51.4,29.98,North,11,0.0,0.0,96,0.00,,-RA,0.43,VWS V14.01,2013-06-07 11:38:00,
2013-06-07 07:43:00,52.5,51.4,29.98,North,6,0.0,0.0,96,0.00,,,0.43,VWS V14.01,2013-06-07 11:43:00,
2013-06-07 07:48:00,52.5,51.4,29.98,North,357,0.0,0.0,96,0.00,,,0.43,VWS V14.01,2013-06-07 11:48:00,
2013-06-07 07:53:00,52.5,51.4,29.98,NW,324,2.7,5.8,96,0.00,,,0.43,VWS V14.01,2013-06-07 11:53:00,
2013-06-07 07:58:00,52.3,51.2,29.98,NNW,341,0.0,5.8,96,0.04,,,0.47,VWS V14.01,2013-06-07 11:58:00,
2013-06-07 08:03:00,52.3,51.2,29.98,NNE,16,4.0,4.0,96,0.04,,,0.47,VWS V14.01,2013-06-07 12:03:00,
2013-06-07 08:08:00,52.3,51.2,29.98,NNW,345,0.0,4.0,96,0.04,,,0.47,VWS V14.01,2013-06-07 12:08:00,
2013-06-07 08:14:00,52.3,51.2,29.98,NNW,338,3.1,3.1,96,0.04,,,0.47,VWS V14.01,2013-06-07 12:14:00,
2013-06-07 08:19:00,52.3,51.2,29.98,NNW,337,0.0,3.1,96,0.04,,,0.47,VWS V14.01,2013-06-07 12:19:00,
2013-06-07 08:24:00,52.3,51.2,29.98,NW,320,3.6,3.6,96,0.04,,,0.47,VWS V14.01,2013-06-07 12:24:00,
2013-06-07 08:29:00,52.3,51.2,29.98,North,353,0.0,3.6,96,0.04,,,0.47,VWS V14.01,2013-06-07 12:29:00,
2013-06-07 08:34:00,52.5,51.4,29.98,North,353,0.0,0.0,96,0.04,,,0.47,VWS V14.01,2013-06-07 12:34:00,
2013-06-07 08:39:00,52.5,51.4,29.98,North,353,0.0,0.0,96,0.04,,,0.47,VWS V14.01,2013-06-07 12:39:00,
2013-06-07 08:44:00,52.7,51.6,29.98,North,353,0.0,0.0,96,0.04,,,0.47,VWS V14.01,2013-06-07 12:44:00,
2013-06-07 08:49:00,52.7,51.6,29.98,North,353,0.0,0.0,96,0.04,,,0.47,VWS V14.01,2013-06-07 12:49:00,
2013-06-07 08:54:00,52.7,51.6,29.98,North,353,0.0,0.0,96,0.04,,,0.47,VWS V14.01,2013-06-07 12:54:00,
2013-06-07 08:59:00,52.7,51.9,29.98,North,353,0.0,0.0,97,0.08,,,0.51,VWS V14.01,2013-06-07 12:59:00,
2013-06-07 09:04:00,52.7,51.9,29.98,North,3,0.0,0.0,97,0.04,,-RA,0.51,VWS V14.01,2013-06-07 13:04:00,
2013-06-07 09:09:00,52.9,52.0,29.98,NNW,338,0.0,0.0,97,0.04,,-RA,0.51,VWS V14.01,2013-06-07 13:09:00,
2013-06-07 09:14:00,53.1,52.2,29.98,NNW,338,0.0,0.0,97,0.04,,-RA,0.51,VWS V14.01,2013-06-07 13:14:00,
2013-06-07 09:19:00,53.2,52.4,29.98,NNW,338,0.0,0.0,97,0.04,,-RA,0.51,VWS V14.01,2013-06-07 13:19:00,
2013-06-07 09:24:00,53.4,52.6,29.98,NNW,338,0.0,0.0,97,0.04,,-RA,0.51,VWS V14.01,2013-06-07 13:24:00,
2013-06-07 09:29:00,53.4,52.6,29.98,NNW,338,0.0,0.0,97,0.04,,-RA,0.51,VWS V14.01,2013-06-07 13:29:00,
2013-06-07 09:34:00,53.4,52.6,29.98,NNW,338,0.0,0.0,97,0.04,,-RA,0.51,VWS V14.01,2013-06-07 13:34:00,
2013-06-07 09:39:00,53.4,52.6,29.98,NNW,331,0.0,0.0,97,0.04,,-RA,0.51,VWS V14.01,2013-06-07 13:39:00,
2013-06-07 09:44:00,53.4,52.6,29.98,NNE,15,0.0,2.7,97,0.04,,OVC031,0.51,VWS V14.01,2013-06-07 13:44:00,
2013-06-07 09:49:00,53.4,52.6,29.98,NNE,15,0.0,2.7,97,0.04,,OVC031,0.51,VWS V14.01,2013-06-07 13:49:00,
2013-06-07 09:54:00,53.6,52.5,29.98,NNE,15,0.0,0.0,96,0.04,,OVC031,0.51,VWS V14.01,2013-06-07 13:54:00,
2013-06-07 09:59:00,53.6,52.5,29.98,NNE,15,0.0,0.0,96,0.04,,OVC031,0.51,VWS V14.01,2013-06-07 13:59:00,
2013-06-07 10:04:00,53.6,52.5,29.98,NNE,15,0.0,0.0,96,0.00,,OVC031,0.51,VWS V14.01,2013-06-07 14:04:00,
2013-06-07 10:09:00,53.6,52.5,29.98,NE,47,0.0,0.0,96,0.00,,OVC031,0.51,VWS V14.01,2013-06-07 14:09:00,
2013-06-07 10:14:00,53.6,52.5,29.98,NNE,16,0.0,0.0,96,0.00,,OVC031,0.51,VWS V14.01,2013-06-07 14:14:00,
2013-06-07 10:19:00,53.8,52.7,29.98,NNE,16,0.0,0.0,96,0.00,,OVC031,0.51,VWS V14.01,2013-06-07 14:19:00,
2013-06-07 10:24:00,53.8,52.7,29.98,NNW,339,0.0,0.0,96,0.00,,OVC031,0.51,VWS V14.01,2013-06-07 14:24:00,
2013-06-07 10:29:00,54.0,52.8,29.98,NNE,29,0.0,2.7,96,0.00,,OVC031,0.51,VWS V14.01,2013-06-07 14:29:00,
2013-06-07 10:34:00,54.3,53.2,29.98,NNW,329,0.0,0.0,96,0.00,,OVC031,0.51,VWS V14.01,2013-06-07 14:34:00,
2013-06-07 10:39:00,54.3,53.2,29.98,NE,35,0.0,0.0,96,0.00,,OVC031,0.51,VWS V14.01,2013-06-07 14:39:00,
2013-06-07 10:44:00,54.5,53.4,29.98,NNW,334,0.0,0.0,96,0.00,,OVC031,0.51,VWS V14.01,2013-06-07 14:44:00,
2013-06-07 10:49:00,54.5,53.4,29.98,North,353,0.0,4.0,96,0.00,,OVC031,0.51,VWS V14.01,2013-06-07 14:49:00,
2013-06-07 10:54:00,54.5,53.4,29.98,ENE,69,2.2,2.2,96,0.00,,OVC031,0.51,VWS V14.01,2013-06-07 14:54:00,
2013-06-07 10:59:00,54.7,53.6,29.98,NNW,339,0.0,2.2,96,0.00,,OVC031,0.51,VWS V14.01,2013-06-07 14:59:00,
2013-06-07 11:04:00,54.7,53.6,29.98,South,190,0.0,3.1,96,0.00,,-RA,0.51,VWS V14.01,2013-06-07 15:04:00,
2013-06-07 11:09:00,55.4,54.0,29.98,NE,52,2.2,3.1,95,0.00,,-RA,0.51,VWS V14.01,2013-06-07 15:09:00,
2013-06-07 11:14:00,55.4,54.0,29.98,East,87,4.0,4.0,95,0.00,,-RA,0.51,VWS V14.01,2013-06-07 15:14:00,
2013-06-07 11:19:00,55.4,54.0,29.98,NNE,21,7.6,7.6,95,0.00,,-RA,0.51,VWS V14.01,2013-06-07 15:19:00,
2013-06-07 11:24:00,55.4,54.0,29.98,NNW,327,0.0,7.6,95,0.00,,-RA,0.51,VWS V14.01,2013-06-07 15:24:00,
2013-06-07 11:29:00,55.4,54.0,29.98,NE,53,3.6,7.6,95,0.00,,-RA,0.51,VWS V14.01,2013-06-07 15:29:00,
2013-06-07 11:34:00,55.4,53.7,29.98,West,278,0.0,3.6,94,0.00,,-RA,0.51,VWS V14.01,2013-06-07 15:34:00,
2013-06-07 11:39:00,55.6,53.9,29.98,ENE,57,6.3,6.3,94,0.00,,-RA,0.51,VWS V14.01,2013-06-07 15:39:00,
2013-06-07 11:44:00,55.4,53.4,29.98,North,10,0.0,4.9,93,0.00,,-RA,0.51,VWS V14.01,2013-06-07 15:44:00,
2013-06-07 11:49:00,55.4,53.4,29.98,South,184,0.0,4.9,93,0.00,,-RA,0.51,VWS V14.01,2013-06-07 15:49:00,
2013-06-07 11:54:00,55.9,54.0,29.98,South,184,0.0,0.0,93,0.00,,-RA,0.51,VWS V14.01,2013-06-07 15:54:00,
2013-06-07 11:59:00,55.9,53.7,29.98,NE,48,4.0,5.8,92,0.00,,-RA,0.51,VWS V14.01,2013-06-07 15:59:00,
2013-06-07 12:04:00,56.3,53.7,29.98,NE,39,3.1,6.3,91,0.00,,-RA,0.51,VWS V14.01,2013-06-07 16:04:00,
2013-06-07 12:09:00,56.3,53.7,29.98,NNE,26,0.0,6.3,91,0.00,,-RA,0.51,VWS V14.01,2013-06-07 16:09:00,
2013-06-07 12:15:00,56.3,53.4,29.98,North,4,0.0,2.2,90,0.00,,-RA,0.51,VWS V14.01,2013-06-07 16:15:00,
2013-06-07 12:20:00,56.3,53.1,29.98,NNE,29,0.0,2.2,89,0.00,,-RA,0.51,VWS V14.01,2013-06-07 16:20:00,
2013-06-07 12:25:00,56.3,53.1,29.98,NNE,29,0.0,0.0,89,0.00,,-RA,0.51,VWS V14.01,2013-06-07 16:25:00,
2013-06-07 12:30:00,57.0,54.1,29.98,NNE,29,0.0,0.0,90,0.00,,-RA,0.51,VWS V14.01,2013-06-07 16:30:00,
2013-06-07 12:35:00,57.2,54.0,29.98,South,170,0.0,3.6,89,0.00,,-RA,0.51,VWS V14.01,2013-06-07 16:35:00,
2013-06-07 12:40:00,57.0,53.8,29.98,NW,319,4.9,4.9,89,0.00,,-RA,0.51,VWS V14.01,2013-06-07 16:40:00,
2013-06-07 12:45:00,56.8,53.3,29.98,NNE,18,3.6,4.9,88,0.00,,OVC029,0.51,VWS V14.01,2013-06-07 16:45:00,
2013-06-07 12:50:00,56.8,53.0,29.98,NNE,24,0.0,5.8,87,0.00,,OVC029,0.51,VWS V14.01,2013-06-07 16:50:00,
2013-06-07 12:55:00,56.8,53.3,29.98,West,273,0.0,0.0,88,0.00,,OVC029,0.51,VWS V14.01,2013-06-07 16:55:00,
2013-06-07 13:00:00,57.0,53.2,29.98,ENE,72,0.0,3.6,87,0.00,,OVC029,0.51,VWS V14.01,2013-06-07 17:00:00,
2013-06-07 13:05:00,56.8,52.7,29.98,North,9,5.8,5.8,86,0.00,,OVC029,0.51,VWS V14.01,2013-06-07 17:05:00,
2013-06-07 13:10:00,56.3,52.2,29.98,NNW,333,0.0,0.0,86,0.00,,OVC029,0.51,VWS V14.01,2013-06-07 17:10:00,
2013-06-07 13:15:00,56.3,52.2,29.98,NNW,332,6.3,6.3,86,0.00,,OVC029,0.51,VWS V14.01,2013-06-07 17:15:00,
2013-06-07 13:20:00,56.3,52.2,29.98,NNE,29,0.0,6.3,86,0.00,,OVC029,0.51,VWS V14.01,2013-06-07 17:20:00,
2013-06-07 13:25:00,56.3,52.2,29.98,NNE,27,4.9,5.4,86,0.00,,OVC029,0.51,VWS V14.01,2013-06-07 17:25:00,
2013-06-07 13:30:00,55.9,51.8,29.98,North,357,2.2,2.2,86,0.00,,OVC029,0.51,VWS V14.01,2013-06-07 17:30:00,
2013-06-07 13:35:00,55.9,52.1,29.98,North,1,2.7,4.9,87,0.00,,OVC029,0.51,VWS V14.01,2013-06-07 17:35:00,
2013-06-07 13:40:00,56.1,52.3,29.98,NNE,18,0.0,0.0,87,0.00,,OVC029,0.51,VWS V14.01,2013-06-07 17:40:00,
2013-06-07 13:45:00,56.3,52.5,29.98,North,353,4.9,4.9,87,0.00,,OVC027,0.51,VWS V14.01,2013-06-07 17:45:00,
2013-06-07 13:50:00,56.3,52.5,29.98,NNW,334,0.0,2.7,87,0.00,,OVC027,0.51,VWS V14.01,2013-06-07 17:50:00,
2013-06-07 13:55:00,56.3,52.5,29.98,NNW,344,0.0,2.7,87,0.00,,OVC027,0.51,VWS V14.01,2013-06-07 17:55:00,
2013-06-07 14:00:00,56.3,52.5,29.98,North,357,3.6,3.6,87,0.00,,OVC027,0.51,VWS V14.01,2013-06-07 18:00:00,
2013-06-07 14:06:00,56.3,52.5,29.98,NE,38,0.0,4.9,87,0.00,,OVC027,0.51,VWS V14.01,2013-06-07 18:06:00,
2013-06-07 14:11:00,56.3,52.5,29.98,NW,320,2.7,2.7,87,0.00,,OVC027,0.51,VWS V14.01,2013-06-07 18:11:00,
2013-06-07 14:16:00,56.3,52.5,29.98,NNE,19,0.0,2.7,87,0.00,,OVC027,0.51,VWS V14.01,2013-06-07 18:16:00,
2013-06-07 14:21:00,56.7,51.9,29.98,NNE,23,5.8,5.8,84,0.00,,OVC027,0.51,VWS V14.01,2013-06-07 18:21:00,
2013-06-07 14:26:00,56.3,51.5,29.98,NNW,335,6.3,6.3,84,0.00,,OVC027,0.51,VWS V14.01,2013-06-07 18:26:00,
2013-06-07 14:31:00,56.3,51.5,29.98,North,357,3.6,6.3,84,0.00,,OVC027,0.51,VWS V14.01,2013-06-07 18:31:00,
2013-06-07 14:36:00,56.3,51.5,29.98,NNW,346,0.0,6.3,84,0.00,,OVC027,0.51,VWS V14.01,2013-06-07 18:36:00,
2013-06-07 14:42:00,55.6,51.5,29.98,NNE,17,3.1,3.1,86,0.00,,OVC025,0.51,VWS V14.01,2013-06-07 18:42:00,
2013-06-07 14:47:00,55.6,51.5,29.98,North,357,3.6,3.6,86,0.00,,OVC025,0.51,VWS V14.01,2013-06-07 18:47:00,
2013-06-07 14:52:00,55.6,51.5,29.98,North,350,3.6,4.9,86,0.00,,OVC025,0.51,VWS V14.01,2013-06-07 18:52:00,
2013-06-07 14:57:00,55.6,52.7,29.98,North,6,2.7,4.9,90,0.00,,OVC025,0.51,VWS V14.01,2013-06-07 18:57:00,
2013-06-07 15:02:00,55.6,52.7,29.98,NNW,333,2.7,2.7,90,0.00,,-RA,0.51,VWS V14.01,2013-06-07 19:02:00,
2013-06-07 15:07:00,55.6,52.7,29.98,North,353,2.2,4.0,90,0.00,,-RA,0.51,VWS V14.01,2013-06-07 19:07:00,
2013-06-07 15:12:00,55.6,52.7,29.96,North,353,2.2,2.2,90,0.00,,-RA,0.51,VWS V14.01,2013-06-07 19:12:00,
2013-06-07 15:17:00,55.9,53.4,29.96,WNW,293,0.0,4.9,91,0.00,,-RA,0.51,VWS V14.01,2013-06-07 19:17:00,
2013-06-07 15:22:00,55.9,53.4,29.96,WNW,293,0.0,0.0,91,0.00,,-RA,0.51,VWS V14.01,2013-06-07 19:22:00,
2013-06-07 15:27:00,56.1,53.8,29.96,North,7,0.0,0.0,92,0.00,,-RA,0.51,VWS V14.01,2013-06-07 19:27:00,
2013-06-07 15:32:00,56.1,53.8,29.96,North,353,0.0,0.0,92,0.00,,-RA,0.51,VWS V14.01,2013-06-07 19:32:00,
2013-06-07 15:38:00,56.1,53.8,29.96,NNW,344,3.1,3.1,92,0.00,,-RA,0.51,VWS V14.01,2013-06-07 19:38:00,
2013-06-07 15:43:00,56.1,53.8,29.96,North,349,0.0,3.1,92,0.00,,,0.51,VWS V14.01,2013-06-07 19:43:00,
2013-06-07 15:48:00,56.1,53.8,29.96,NNE,27,3.6,3.6,92,0.00,,,0.51,VWS V14.01,2013-06-07 19:48:00,
2013-06-07 15:53:00,56.1,53.8,29.96,NNE,27,0.0,0.0,92,0.00,,,0.51,VWS V14.01,2013-06-07 19:53:00,
2013-06-07 15:59:00,56.1,53.8,29.96,NE,44,0.0,0.0,92,0.00,,,0.51,VWS V14.01,2013-06-07 19:59:00,
2013-06-07 16:04:00,55.8,53.5,29.96,NW,315,0.0,0.0,92,0.00,,,0.51,VWS V14.01,2013-06-07 20:04:00,
2013-06-07 16:09:00,55.8,53.5,29.96,North,353,0.0,0.0,92,0.00,,,0.51,VWS V14.01,2013-06-07 20:09:00,
2013-06-07 16:14:00,55.6,53.3,29.96,NW,318,3.1,3.1,92,0.00,,,0.51,VWS V14.01,2013-06-07 20:14:00,
2013-06-07 16:19:00,55.6,53.3,29.96,NNE,33,2.7,4.0,92,0.00,,,0.51,VWS V14.01,2013-06-07 20:19:00,
2013-06-07 16:24:00,55.6,53.3,29.96,NNW,338,0.0,3.6,92,0.00,,,0.51,VWS V14.01,2013-06-07 20:24:00,
2013-06-07 16:29:00,55.4,53.1,29.96,NNW,333,2.2,3.6,92,0.00,,,0.51,VWS V14.01,2013-06-07 20:29:00,
2013-06-07 16:34:00,55.4,53.1,29.96,NW,326,4.0,4.0,92,0.00,,,0.51,VWS V14.01,2013-06-07 20:34:00,
2013-06-07 16:39:00,55.4,53.1,29.96,North,5,2.7,4.0,92,0.00,,,0.51,VWS V14.01,2013-06-07 20:39:00,
2013-06-07 16:44:00,55.4,53.1,29.96,NW,314,3.6,3.6,92,0.00,,-RA,0.51,VWS V14.01,2013-06-07 20:44:00,
2013-06-07 16:49:00,55.2,52.9,29.96,NNE,12,2.2,3.6,92,0.00,,-RA,0.51,VWS V14.01,2013-06-07 20:49:00,
2013-06-07 16:55:00,55.0,52.8,29.96,North,357,0.0,2.2,92,0.00,,-RA,0.51,VWS V14.01,2013-06-07 20:55:00,
2013-06-07 17:00:00,55.0,52.8,29.96,North,1,0.0,2.2,92,0.00,,-RA,0.51,VWS V14.01,2013-06-07 21:00:00,
2013-06-07 17:05:00,54.9,52.6,29.96,North,353,0.0,0.0,92,0.00,,-RA,0.51,VWS V14.01,2013-06-07 21:05:00,
2013-06-07 17:10:00,54.9,52.6,29.96,NE,42,5.4,5.4,92,0.00,,-RA,0.51,VWS V14.01,2013-06-07 21:10:00,
2013-06-07 17:15:00,54.5,52.2,29.96,North,10,0.0,5.4,92,0.04,,-RA,0.55,VWS V14.01,2013-06-07 21:15:00,
2013-06-07 17:20:00,54.5,52.2,29.96,NW,320,0.0,0.0,92,0.04,,-RA,0.55,VWS V14.01,2013-06-07 21:20:00,
2013-06-07 17:25:00,54.1,51.9,29.96,NNE,17,0.0,0.0,92,0.04,,-RA,0.55,VWS V14.01,2013-06-07 21:25:00,
2013-06-07 17:30:00,54.1,51.9,29.96,NNW,331,0.0,0.0,92,0.04,,-RA,0.55,VWS V14.01,2013-06-07 21:30:00,
2013-06-07 17:35:00,54.0,51.7,29.96,NNE,27,0.0,0.0,92,0.04,,-RA,0.55,VWS V14.01,2013-06-07 21:35:00,
2013-06-07 17:41:00,53.8,51.8,29.96,NNW,340,3.1,3.1,93,0.08,,,0.59,VWS V14.01,2013-06-07 21:41:00,
2013-06-07 17:46:00,53.8,51.8,29.96,North,0,2.2,3.6,93,0.08,,,0.59,VWS V14.01,2013-06-07 21:46:00,
2013-06-07 17:51:00,53.8,51.8,29.96,North,353,4.9,4.9,93,0.08,,,0.59,VWS V14.01,2013-06-07 21:51:00,
2013-06-07 17:56:00,53.8,51.8,29.93,North,5,3.1,4.9,93,0.08,,,0.59,VWS V14.01,2013-06-07 21:56:00,
2013-06-07 18:01:00,53.8,52.1,29.93,NNW,340,0.0,0.0,94,0.08,,,0.59,VWS V14.01,2013-06-07 22:01:00,
2013-06-07 18:06:00,53.8,52.1,29.93,NNW,340,0.0,0.0,94,0.08,,,0.59,VWS V14.01,2013-06-07 22:06:00,
2013-06-07 18:11:00,53.8,52.1,29.93,NW,315,0.0,0.0,94,0.12,,,0.63,VWS V14.01,2013-06-07 22:11:00,
2013-06-07 18:16:00,53.8,52.1,29.93,North,357,3.1,3.1,94,0.12,,,0.63,VWS V14.01,2013-06-07 22:16:00,
2013-06-07 18:21:00,53.8,52.1,29.93,NW,316,3.1,3.6,94,0.08,,,0.63,VWS V14.01,2013-06-07 22:21:00,
2013-06-07 18:26:00,53.8,52.1,29.93,North,349,0.0,3.6,94,0.08,,,0.63,VWS V14.01,2013-06-07 22:26:00,
2013-06-07 18:32:00,53.8,52.1,29.93,NW,320,2.7,2.7,94,0.08,,,0.63,VWS V14.01,2013-06-07 22:32:00,
2013-06-07 18:37:00,53.8,52.1,29.93,NNE,12,3.6,3.6,94,0.08,,,0.63,VWS V14.01,2013-06-07 22:37:00,
2013-06-07 18:42:00,53.8,52.1,29.93,NW,308,0.0,3.6,94,0.04,,-RA,0.63,VWS V14.01,2013-06-07 22:42:00,
2013-06-07 18:47:00,53.8,52.1,29.93,North,0,0.0,3.6,94,0.04,,-RA,0.63,VWS V14.01,2013-06-07 22:47:00,
2013-06-07 18:52:00,53.8,52.1,29.93,NNE,20,0.0,0.0,94,0.04,,-RA,0.63,VWS V14.01,2013-06-07 22:52:00,
2013-06-07 18:57:00,53.8,52.1,29.93,NNW,331,0.0,3.6,94,0.04,,-RA,0.63,VWS V14.01,2013-06-07 22:57:00,
2013-06-07 19:02:00,53.8,52.1,29.93,North,6,3.1,4.9,94,0.04,,-RA,0.63,VWS V14.01,2013-06-07 23:02:00,
2013-06-07 19:07:00,53.8,52.1,29.93,NW,326,3.6,4.9,94,0.04,,-RA,0.63,VWS V14.01,2013-06-07 23:07:00,
2013-06-07 19:12:00,53.8,52.1,29.93,North,357,4.0,4.0,94,0.00,,-RA,0.63,VWS V14.01,2013-06-07 23:12:00,
2013-06-07 19:18:00,53.1,51.7,29.93,North,353,2.7,5.4,95,0.00,,-RA,0.63,VWS V14.01,2013-06-07 23:18:00,
2013-06-07 19:23:00,52.9,51.5,29.93,NW,323,3.1,3.1,95,0.00,,-RA,0.63,VWS V14.01,2013-06-07 23:23:00,
2013-06-07 19:28:00,52.9,51.5,29.93,NNE,19,0.0,3.1,95,0.00,,-RA,0.63,VWS V14.01,2013-06-07 23:28:00,
2013-06-07 19:33:00,52.9,51.5,29.93,NNW,333,0.0,2.2,95,0.00,,-RA,0.63,VWS V14.01,2013-06-07 23:33:00,
2013-06-07 19:38:00,52.7,51.3,29.93,NNW,328,2.7,2.7,95,0.00,,-RA,0.63,VWS V14.01,2013-06-07 23:38:00,
2013-06-07 19:43:00,52.7,51.3,29.93,NNW,343,0.0,5.4,95,0.00,,,0.63,VWS V14.01,2013-06-07 23:43:00,
2013-06-07 19:48:00,52.7,51.3,29.93,NNW,346,3.1,5.4,95,0.00,,,0.63,VWS V14.01,2013-06-07 23:48:00,
2013-06-07 19:53:00,52.7,51.3,29.93,North,9,5.8,5.8,95,0.00,,,0.63,VWS V14.01,2013-06-07 23:53:00,
2013-06-07 19:58:00,52.7,51.3,29.93,North,353,2.7,5.8,95,0.00,,,0.63,VWS V14.01,2013-06-07 23:58:00,
2013-06-07 20:04:00,52.3,51.0,29.93,NNW,340,3.6,3.6,95,0.00,,OVC031,0.63,VWS V14.01,2013-06-08 00:04:00,
2013-06-07 20:09:00,52.3,51.0,29.93,NW,324,5.4,5.4,95,0.00,,OVC031,0.63,VWS V14.01,2013-06-08 00:09:00,
2013-06-07 20:14:00,52.3,51.0,29.93,NW,320,4.0,5.4,95,0.00,,OVC031,0.63,VWS V14.01,2013-06-08 00:14:00,
2013-06-07 20:19:00,52.3,51.0,29.93,NNE,18,4.0,5.4,95,0.00,,OVC031,0.63,VWS V14.01,2013-06-08 00:19:00,
2013-06-07 20:24:00,52.3,51.0,29.93,NNW,335,3.6,4.0,95,0.00,,OVC031,0.63,VWS V14.01,2013-06-08 00:24:00,
2013-06-07 20:29:00,52.0,50.6,29.93,NNW,342,3.6,4.0,95,0.00,,OVC031,0.63,VWS V14.01,2013-06-08 00:29:00,
2013-06-07 20:34:00,52.0,50.6,29.93,North,1,3.1,3.6,95,0.00,,OVC031,0.63,VWS V14.01,2013-06-08 00:34:00,
2013-06-07 20:39:00,52.0,50.6,29.93,NW,321,3.6,3.6,95,0.00,,OVC031,0.63,VWS V14.01,2013-06-08 00:39:00,
2013-06-07 20:44:00,52.0,50.6,29.93,North,357,3.1,4.9,95,0.00,,,0.63,VWS V14.01,2013-06-08 00:44:00,
2013-06-07 20:49:00,52.0,50.6,29.93,NNW,337,2.7,4.9,95,0.00,,,0.63,VWS V14.01,2013-06-08 00:49:00,
2013-06-07 20:54:00,51.6,50.5,29.93,NNW,327,0.0,2.7,96,0.00,,,0.63,VWS V14.01,2013-06-08 00:54:00,
2013-06-07 20:59:00,51.6,50.5,29.93,NW,319,5.4,5.4,96,0.00,,,0.63,VWS V14.01,2013-06-08 00:59:00,
2013-06-07 21:04:00,51.6,50.5,29.93,NNW,335,3.1,3.1,96,0.00,,OVC040,0.63,VWS V14.01,2013-06-08 01:04:00,
2013-06-07 21:09:00,51.8,50.7,29.93,North,0,3.6,3.6,96,0.00,,OVC040,0.63,VWS V14.01,2013-06-08 01:09:00,
2013-06-07 21:14:00,51.8,50.7,29.93,NNW,345,2.2,2.2,96,0.00,,OVC040,0.63,VWS V14.01,2013-06-08 01:14:00,
2013-06-07 21:20:00,51.8,50.7,29.93,NE,35,2.2,3.6,96,0.00,,OVC040,0.63,VWS V14.01,2013-06-08 01:20:00,
2013-06-07 21:25:00,51.6,50.8,29.93,NNE,12,0.0,2.2,97,0.00,,OVC040,0.63,VWS V14.01,2013-06-08 01:25:00,
2013-06-07 21:30:00,51.6,50.8,29.93,NNE,17,4.0,4.0,97,0.00,,OVC040,0.63,VWS V14.01,2013-06-08 01:30:00,
2013-06-07 21:35:00,51.6,50.8,29.93,NNE,13,4.5,4.5,97,0.00,,OVC040,0.63,VWS V14.01,2013-06-08 01:35:00,
2013-06-07 21:40:00,51.6,50.8,29.93,North,353,0.0,0.0,97,0.00,,OVC040,0.63,VWS V14.01,2013-06-08 01:40:00,
2013-06-07 21:45:00,51.6,50.8,29.93,NNE,13,0.0,0.0,97,0.00,,OVC038,0.63,VWS V14.01,2013-06-08 01:45:00,
2013-06-07 21:50:00,51.6,50.8,29.93,NNW,337,0.0,0.0,97,0.00,,OVC038,0.63,VWS V14.01,2013-06-08 01:50:00,
2013-06-07 21:55:00,51.6,50.8,29.93,North,353,0.0,0.0,97,0.00,,OVC038,0.63,VWS V14.01,2013-06-08 01:55:00,
2013-06-07 22:00:00,51.6,50.8,29.93,NNE,20,0.0,3.6,97,0.00,,OVC038,0.63,VWS V14.01,2013-06-08 02:00:00,
2013-06-07 22:06:00,51.6,50.8,29.93,North,10,3.1,3.6,97,0.00,,OVC038,0.63,VWS V14.01,2013-06-08 02:06:00,
2013-06-07 22:11:00,51.6,50.8,29.93,North,10,3.1,3.1,97,0.00,,OVC038,0.63,VWS V14.01,2013-06-08 02:11:00,
2013-06-07 22:16:00,51.6,50.8,29.93,NNE,24,0.0,3.1,97,0.00,,OVC038,0.63,VWS V14.01,2013-06-08 02:16:00,
2013-06-07 22:21:00,51.6,50.8,29.93,NNW,340,3.1,3.1,97,0.04,,OVC038,0.67,VWS V14.01,2013-06-08 02:21:00,
2013-06-07 22:26:00,51.6,50.8,29.93,North,353,0.0,4.9,97,0.04,,OVC038,0.67,VWS V14.01,2013-06-08 02:26:00,
2013-06-07 22:31:00,51.6,50.8,29.93,NNW,341,3.6,3.6,97,0.04,,OVC038,0.67,VWS V14.01,2013-06-08 02:31:00,
2013-06-07 22:36:00,51.6,50.8,29.93,North,350,0.0,4.0,97,0.04,,OVC038,0.67,VWS V14.01,2013-06-08 02:36:00,
2013-06-07 22:42:00,51.6,50.8,29.90,North,357,2.7,2.7,97,0.04,,,0.67,VWS V14.01,2013-06-08 02:42:00,
2013-06-07 22:47:00,51.6,50.8,29.90,North,2,0.0,2.7,97,0.04,,,0.67,VWS V14.01,2013-06-08 02:47:00,
2013-06-07 22:52:00,51.6,50.8,29.90,NNW,327,2.7,2.7,97,0.04,,,0.67,VWS V14.01,2013-06-08 02:52:00,
2013-06-07 22:57:00,51.6,50.8,29.90,North,7,3.1,4.0,97,0.04,,,0.67,VWS V14.01,2013-06-08 02:57:00,
2013-06-07 23:02:00,51.6,50.8,29.90,North,5,3.6,4.0,97,0.04,,OVC032,0.67,VWS V14.01,2013-06-08 03:02:00,
2013-06-07 23:07:00,51.6,50.8,29.90,North,357,0.0,4.0,97,0.04,,OVC032,0.67,VWS V14.01,2013-06-08 03:07:00,
2013-06-07 23:12:00,51.6,50.8,29.90,North,2,2.7,2.7,97,0.04,,OVC032,0.67,VWS V14.01,2013-06-08 03:12:00,
2013-06-07 23:17:00,51.6,50.8,29.90,NNW,337,0.0,2.7,97,0.04,,OVC032,0.67,VWS V14.01,2013-06-08 03:17:00,
2013-06-07 23:22:00,51.6,50.8,29.90,NE,54,4.0,4.0,97,0.04,,OVC032,0.67,VWS V14.01,2013-06-08 03:22:00,
2013-06-07 23:28:00,51.6,50.8,29.90,NNW,337,2.7,4.0,97,0.08,,OVC032,0.71,VWS V14.01,2013-06-08 03:28:00,
2013-06-07 23:33:00,51.6,50.8,29.90,NE,37,0.0,4.0,97,0.04,,OVC032,0.71,VWS V14.01,2013-06-08 03:33:00,
2013-06-07 23:38:00,51.6,50.8,29.90,North,357,0.0,4.0,97,0.08,,OVC032,0.75,VWS V14.01,2013-06-08 03:38:00,
2013-06-07 23:43:00,51.6,50.8,29.90,North,8,0.0,0.0,97,0.08,, +RA,0.75,VWS V14.01,2013-06-08 03:43:00,
2013-06-07 23:48:00,51.6,50.8,29.90,North,9,0.0,0.0,97,0.12,, +RA,0.79,VWS V14.01,2013-06-08 03:48:00,
2013-06-07 23:54:00,51.6,50.8,29.90,NE,37,2.7,4.9,97,0.12,, +RA,0.79,VWS V14.01,2013-06-08 03:54:00,
2013-06-07 23:59:00,51.6,50.8,29.90,NW,310,0.0,4.9,97,0.12,, +RA,0.79,VWS V14.01,2013-06-08 03:59:00,